Time;durP1;ratioP1;P1;durP2;ratioP2;P2;SDS_P1;SDS_P2;PMS_P1;PMS_P2;Temp;Humidity;BMP_temperature;BMP_pressure;BME280_temperature;BME280_humidity;BME280_pressure;Samples;Min_cycle;Max_cycle;Signal;HPM_P1;HPM_P2
2021/07/21 00:00:08;;;;;;;3.38;0.70;;;9.90;91.70;;;;;;5054897;28;20396;-86
2021/07/21 00:02:35;;;;;;;3.50;0.80;;;9.90;92.30;;;;;;5054690;28;20403;-87
2021/07/21 00:05:06;;;;;;;3.80;0.75;;;10.10;92.40;;;;;;5055709;28;20422;-86
2021/07/21 00:07:33;;;;;;;2.05;0.60;;;10.20;91.90;;;;;;5056779;28;20887;-83
2021/07/21 00:10:00;;;;;;;2.50;0.45;;;10.20;92.20;;;;;;5059064;28;20403;-84
2021/07/21 00:15:13;;;;;;;2.00;0.60;;;10.20;91.40;;;;;;5066149;28;20452;-84
2021/07/21 00:17:41;;;;;;;2.60;0.60;;;10.20;91.70;;;;;;5063891;28;20771;-85
2021/07/21 00:20:12;;;;;;;3.60;0.50;;;10.20;91.40;;;;;;5067267;28;20406;-84
2021/07/21 00:22:44;;;;;;;2.30;0.80;;;10.10;91.40;;;;;;5059348;28;20985;-84
2021/07/21 00:25:13;;;;;;;3.08;0.73;;;10.20;92.30;;;;;;5063851;28;20459;-86
2021/07/21 00:27:46;;;;;;;2.30;0.70;;;10.10;92.00;;;;;;5061310;28;20400;-84
2021/07/21 00:30:16;;;;;;;3.88;0.75;;;10.10;92.70;;;;;;5056735;28;20397;-85
2021/07/21 00:32:43;;;;;;;2.35;0.50;;;10.20;91.20;;;;;;5053785;28;20402;-85
2021/07/21 00:35:14;;;;;;;2.80;0.50;;;10.60;92.10;;;;;;5054298;28;20430;-85
2021/07/21 00:37:41;;;;;;;2.47;0.50;;;10.90;91.70;;;;;;5063355;28;20493;-84
2021/07/21 00:40:11;;;;;;;2.53;0.80;;;11.00;91.50;;;;;;5063055;28;20402;-84
2021/07/21 00:42:38;;;;;;;3.15;0.85;;;11.10;91.10;;;;;;5062945;28;20386;-84
2021/07/21 00:45:07;;;;;;;2.00;0.60;;;11.20;91.80;;;;;;5058717;28;20490;-90
2021/07/21 00:47:34;;;;;;;3.60;0.60;;;11.30;91.70;;;;;;5055947;28;20396;-82
2021/07/21 00:50:12;;;;;;;2.30;0.70;;;11.40;90.80;;;;;;5065205;28;20408;-84
2021/07/21 00:52:41;;;;;;;2.00;0.80;;;11.50;90.80;;;;;;5057354;28;20394;-83
2021/07/21 00:55:14;;;;;;;3.67;0.75;;;11.60;91.90;;;;;;5054321;28;21184;-83
2021/07/21 00:57:42;;;;;;;1.63;0.60;;;11.70;90.00;;;;;;5054253;28;20447;-85
2021/07/21 01:00:13;;;;;;;2.80;0.80;;;11.80;90.60;;;;;;5061322;28;20430;-83
2021/07/21 01:02:42;;;;;;;3.03;0.80;;;12.00;89.90;;;;;;5057690;28;20410;-83
2021/07/21 01:05:24;;;;;;;2.38;0.50;;;12.10;85.60;;;;;;5052704;28;20392;-84
2021/07/21 01:07:51;;;;;;;2.92;0.70;;;12.10;87.90;;;;;;5050894;28;20395;-84
2021/07/21 01:10:20;;;;;;;3.53;0.70;;;12.20;86.00;;;;;;5068742;28;20515;-83
2021/07/21 01:13:11;;;;;;;4.80;0.80;;;12.20;84.90;;;;;;5065830;28;20816;-85
2021/07/21 01:15:50;;;;;;;5.18;0.60;;;12.10;86.40;;;;;;5053108;28;20422;-84
2021/07/21 01:18:28;;;;;;;4.40;0.80;;;12.10;84.60;;;;;;5059734;28;20433;-85
2021/07/21 01:21:36;;;;;;;2.67;0.50;;;12.10;85.90;;;;;;5058309;28;20382;-85
2021/07/21 01:24:21;;;;;;;4.70;0.80;;;12.00;84.30;;;;;;5053087;28;20408;-84
2021/07/21 01:27:14;;;;;;;3.63;0.60;;;12.00;84.80;;;;;;5069149;28;20377;-83
2021/07/21 01:29:45;;;;;;;2.90;0.60;;;12.20;84.60;;;;;;5060619;28;20540;-83
2021/07/21 01:32:16;;;;;;;3.10;0.70;;;12.30;84.70;;;;;;5062519;28;20419;-83
2021/07/21 01:34:43;;;;;;;4.60;0.60;;;12.40;81.70;;;;;;5050894;28;20395;-84
2021/07/21 01:37:11;;;;;;;2.95;0.50;;;12.50;82.10;;;;;;5060248;28;20393;-83
2021/07/21 01:39:45;;;;;;;4.20;0.52;;;12.50;79.60;;;;;;5069284;28;20409;-85
2021/07/21 01:49:05;;;;;;;1.80;0.65;;;12.50;77.50;;;;;;5048304;28;20408;-84
2021/07/21 01:51:34;;;;;;;3.83;0.80;;;12.50;78.30;;;;;;5058735;28;20438;-83
2021/07/21 01:54:02;;;;;;;2.00;0.50;;;12.60;78.70;;;;;;5065355;28;20469;-82
2021/07/21 01:56:32;;;;;;;3.05;0.50;;;12.80;78.80;;;;;;5076919;28;20401;-81
2021/07/21 01:59:00;;;;;;;2.47;0.65;;;12.90;78.90;;;;;;5059112;28;20423;-81
2021/07/21 02:01:30;;;;;;;2.78;0.70;;;12.80;78.70;;;;;;5054428;28;20393;-82
2021/07/21 02:03:59;;;;;;;4.78;0.90;;;12.90;80.80;;;;;;5069972;28;20390;-84
2021/07/21 02:06:31;;;;;;;2.00;0.60;;;13.00;82.60;;;;;;5060495;28;20466;-84
2021/07/21 02:08:59;;;;;;;4.53;0.68;;;13.00;79.40;;;;;;5065071;28;20399;-86
2021/07/21 02:11:28;;;;;;;4.28;0.75;;;13.00;80.20;;;;;;5062656;28;20885;-89
2021/07/21 02:14:03;;;;;;;3.05;0.65;;;13.00;77.60;;;;;;5058623;28;20404;-87
2021/07/21 02:16:31;;;;;;;2.72;0.60;;;13.00;77.50;;;;;;5056341;28;20399;-84
2021/07/21 02:19:03;;;;;;;2.25;0.65;;;13.00;77.90;;;;;;5063350;28;20437;-87
2021/07/21 02:21:32;;;;;;;5.72;0.85;;;12.80;80.50;;;;;;5093283;28;21100;-85
2021/07/21 02:24:01;;;;;;;3.97;0.63;;;13.00;82.00;;;;;;5072892;28;20405;-85
2021/07/21 02:26:28;;;;;;;3.30;0.85;;;12.90;79.60;;;;;;5079635;28;20422;-85
2021/07/21 02:28:56;;;;;;;2.80;1.07;;;12.80;81.90;;;;;;5061706;28;20457;-87
2021/07/21 02:31:29;;;;;;;3.42;0.90;;;12.70;83.50;;;;;;5061197;28;20408;-83
2021/07/21 02:34:02;;;;;;;2.72;0.85;;;12.70;83.70;;;;;;5056230;28;20387;-84
2021/07/21 02:36:32;;;;;;;3.58;0.80;;;12.80;82.20;;;;;;5061060;28;20404;-84
2021/07/21 02:39:00;;;;;;;3.15;0.60;;;13.00;80.40;;;;;;5062400;28;20401;-85
2021/07/21 02:41:27;;;;;;;2.30;0.45;;;12.80;79.70;;;;;;5059953;28;20412;-85
2021/07/21 02:43:54;;;;;;;2.78;0.60;;;12.80;84.30;;;;;;5067676;28;20394;-86
2021/07/21 02:46:22;;;;;;;2.50;0.68;;;12.90;83.40;;;;;;5074489;28;20437;-85
2021/07/21 02:48:49;;;;;;;2.53;0.43;;;13.00;83.30;;;;;;5064658;28;20868;-86
2021/07/21 02:51:52;;;;;;;2.78;0.57;;;12.90;80.60;;;;;;5063312;28;20391;-84
2021/07/21 02:54:48;;;;;;;2.70;0.47;;;12.90;82.40;;;;;;5062187;28;20406;-86
2021/07/21 02:57:38;;;;;;;2.28;0.50;;;12.90;77.90;;;;;;5058542;28;20388;-84
2021/07/21 03:00:20;;;;;;;3.28;0.68;;;13.00;80.40;;;;;;5066131;28;20390;-84
2021/07/21 03:02:52;;;;;;;3.72;0.73;;;13.20;76.40;;;;;;5057385;28;20407;-85
2021/07/21 03:05:24;;;;;;;3.80;0.75;;;13.30;74.50;;;;;;5057568;28;20404;-85
2021/07/21 03:07:54;;;;;;;2.23;0.57;;;13.30;74.70;;;;;;5063028;28;20475;-83
2021/07/21 03:10:23;;;;;;;4.15;0.60;;;13.40;78.00;;;;;;5070411;28;20401;-85
2021/07/21 03:13:03;;;;;;;2.67;0.63;;;13.40;76.00;;;;;;5062782;28;20399;-86
2021/07/21 03:15:34;;;;;;;3.85;0.70;;;13.30;77.30;;;;;;5057780;28;20380;-85
2021/07/21 03:18:03;;;;;;;5.00;0.55;;;13.30;76.90;;;;;;5057822;28;20459;-84
2021/07/21 03:20:31;;;;;;;4.53;0.70;;;13.20;75.30;;;;;;5058121;28;20868;-85
2021/07/21 03:23:01;;;;;;;2.72;0.50;;;13.10;78.10;;;;;;5054256;28;20453;-86
2021/07/21 03:25:28;;;;;;;3.90;0.60;;;13.00;76.10;;;;;;5054238;28;20380;-85
2021/07/21 03:27:56;;;;;;;4.38;0.60;;;13.10;77.00;;;;;;5059320;28;20419;-85
2021/07/21 03:30:24;;;;;;;2.30;0.65;;;13.10;74.70;;;;;;5060475;28;20418;-84
2021/07/21 03:32:53;;;;;;;3.08;0.52;;;13.20;78.10;;;;;;5053649;28;20399;-84
2021/07/21 03:35:25;;;;;;;3.22;0.60;;;13.00;77.70;;;;;;5054042;28;20400;-83
2021/07/21 03:37:53;;;;;;;1.90;0.60;;;12.90;77.80;;;;;;5061147;28;20402;-86
2021/07/21 03:40:23;;;;;;;6.40;0.80;;;12.70;76.70;;;;;;5053852;28;20894;-84
2021/07/21 03:42:52;;;;;;;2.63;0.70;;;12.50;79.60;;;;;;5054551;28;20407;-85
2021/07/21 03:45:20;;;;;;;3.65;0.70;;;12.50;80.00;;;;;;5053574;28;20496;-84
2021/07/21 03:47:48;;;;;;;2.40;0.63;;;12.50;79.80;;;;;;5059549;28;20929;-84
2021/07/21 03:50:19;;;;;;;3.42;0.85;;;12.70;78.30;;;;;;5059288;28;20976;-84
2021/07/21 03:52:48;;;;;;;4.20;0.90;;;12.80;77.90;;;;;;5064200;28;22258;-86
2021/07/21 03:55:17;;;;;;;4.35;0.68;;;12.80;78.60;;;;;;5051360;28;20396;-84
2021/07/21 03:57:45;;;;;;;2.67;0.60;;;12.90;80.40;;;;;;5068115;28;20407;-83
2021/07/21 04:00:15;;;;;;;2.90;0.50;;;12.90;80.80;;;;;;5055544;28;20449;-86
2021/07/21 04:02:45;;;;;;;3.90;0.80;;;13.00;77.80;;;;;;5055139;28;20398;-86
2021/07/21 04:05:15;;;;;;;2.00;0.47;;;13.20;77.80;;;;;;5064233;28;20403;-85
2021/07/21 04:07:45;;;;;;;1.45;0.50;;;13.30;74.70;;;;;;5059837;28;20396;-86
2021/07/21 04:10:13;;;;;;;2.90;0.52;;;13.40;75.10;;;;;;5060348;28;20908;-88
2021/07/21 04:12:45;;;;;;;3.72;0.70;;;13.40;76.60;;;;;;5062783;28;20406;-87
2021/07/21 04:15:14;;;;;;;2.08;0.43;;;13.40;79.20;;;;;;5058591;28;20796;-88
2021/07/21 04:17:42;;;;;;;4.13;0.63;;;13.40;76.70;;;;;;5067098;28;20428;-88
2021/07/21 04:20:10;;;;;;;3.85;0.65;;;13.30;75.50;;;;;;5064870;28;20390;-86
2021/07/21 04:22:39;;;;;;;3.33;0.55;;;13.30;75.60;;;;;;5071785;28;20387;-87
2021/07/21 04:25:11;;;;;;;5.00;0.70;;;13.20;75.80;;;;;;5065203;28;20541;-86
2021/07/21 04:27:40;;;;;;;2.80;0.40;;;13.00;76.30;;;;;;5070375;28;20402;-88
2021/07/21 04:30:08;;;;;;;1.88;0.60;;;12.90;76.00;;;;;;5064831;28;20946;-84
2021/07/21 04:32:38;;;;;;;2.15;0.70;;;12.70;77.70;;;;;;5074871;28;20404;-86
2021/07/21 04:35:09;;;;;;;3.47;0.70;;;12.70;77.50;;;;;;5067374;28;20416;-85
2021/07/21 04:37:40;;;;;;;2.90;0.82;;;12.60;80.60;;;;;;5054091;28;20416;-87
2021/07/21 04:40:12;;;;;;;3.20;0.90;;;12.70;78.80;;;;;;5050410;28;20400;-87
2021/07/21 04:42:40;;;;;;;4.32;0.75;;;12.70;79.90;;;;;;5054526;28;20394;-83
2021/07/21 04:45:09;;;;;;;1.77;0.60;;;12.80;77.90;;;;;;5067793;28;20387;-87
2021/07/21 04:47:37;;;;;;;3.20;0.80;;;12.80;76.90;;;;;;5080012;28;20389;-87
2021/07/21 04:50:13;;;;;;;2.27;0.70;;;12.80;78.60;;;;;;5068122;28;20424;-85
2021/07/21 04:52:42;;;;;;;3.75;0.77;;;12.80;78.90;;;;;;5056154;28;20427;-87
2021/07/21 04:55:09;;;;;;;3.80;0.90;;;12.70;77.80;;;;;;5037337;28;20395;-88
2021/07/21 04:57:36;;;;;;;1.92;0.60;;;12.60;77.40;;;;;;5037317;28;20407;-85
2021/07/21 05:00:06;;;;;;;5.80;1.00;;;12.60;78.70;;;;;;5029078;28;20392;-87
2021/07/21 05:02:33;;;;;;;2.95;0.95;;;12.60;80.40;;;;;;5035247;28;20408;-86
2021/07/21 05:04:59;;;;;;;5.10;0.90;;;12.60;81.50;;;;;;5030462;28;20783;-87
2021/07/21 05:07:26;;;;;;;6.22;0.80;;;12.60;77.00;;;;;;5014732;28;20485;-87
2021/07/21 05:09:53;;;;;;;3.45;0.57;;;12.60;76.60;;;;;;5038933;28;20400;-90
2021/07/21 05:12:23;;;;;;;2.05;0.50;;;12.60;78.40;;;;;;5018085;28;20910;-88
2021/07/21 05:14:50;;;;;;;2.90;0.60;;;12.60;78.10;;;;;;5034502;28;20396;-91
2021/07/21 05:17:17;;;;;;;4.78;1.00;;;12.60;79.50;;;;;;5037640;28;20411;-87
2021/07/21 05:19:46;;;;;;;2.85;0.60;;;12.60;77.60;;;;;;5031348;28;20416;-87
2021/07/21 05:22:13;;;;;;;3.77;0.57;;;12.50;76.10;;;;;;5031330;28;20401;-87
2021/07/21 05:24:40;;;;;;;3.53;0.68;;;12.50;76.90;;;;;;5030819;28;20408;-84
2021/07/21 05:27:07;;;;;;;2.63;0.60;;;12.50;77.80;;;;;;5032167;28;20401;-87
2021/07/21 05:29:34;;;;;;;2.83;0.70;;;12.50;79.30;;;;;;5031626;28;20407;-85
2021/07/21 05:32:01;;;;;;;4.30;0.70;;;12.50;78.60;;;;;;5034502;28;20545;-85
2021/07/21 05:34:28;;;;;;;2.88;0.88;;;12.50;77.60;;;;;;5030935;28;21439;-86
2021/07/21 05:36:55;;;;;;;4.47;0.70;;;12.50;78.80;;;;;;5032303;28;20407;-83
2021/07/21 05:39:22;;;;;;;3.22;0.70;;;12.50;77.10;;;;;;5032541;28;20395;-84
2021/07/21 05:41:56;;;;;;;4.18;0.80;;;12.50;75.70;;;;;;5034107;28;20408;-85
2021/07/21 05:44:26;;;;;;;3.22;1.20;;;12.40;72.80;;;;;;5032338;28;20440;-84
2021/07/21 05:46:53;;;;;;;2.23;0.77;;;12.30;73.70;;;;;;5033053;28;20443;-87
2021/07/21 05:49:21;;;;;;;4.05;1.40;;;12.20;74.80;;;;;;5040669;28;20409;-86
2021/07/21 05:51:48;;;;;;;3.10;0.80;;;12.10;73.90;;;;;;5053682;28;20410;-89
2021/07/21 05:54:15;;;;;;;1.75;0.70;;;12.10;73.90;;;;;;5049089;28;20403;-86
2021/07/21 05:56:42;;;;;;;2.90;0.70;;;12.00;73.90;;;;;;5058203;28;20962;-83
2021/07/21 05:59:09;;;;;;;2.53;0.47;;;12.00;73.70;;;;;;5051568;28;20444;-83
2021/07/21 06:01:36;;;;;;;1.77;0.70;;;11.90;74.90;;;;;;5051515;28;20448;-84
2021/07/21 06:04:05;;;;;;;2.53;0.52;;;11.90;75.80;;;;;;5051105;28;20440;-83
2021/07/21 06:06:32;;;;;;;1.98;0.75;;;11.80;76.30;;;;;;5050524;28;20610;-83
2021/07/21 06:08:59;;;;;;;4.10;0.65;;;11.80;77.70;;;;;;5049747;28;22121;-82
2021/07/21 06:11:26;;;;;;;2.78;0.60;;;11.70;74.60;;;;;;5049644;28;20462;-84
2021/07/21 06:13:59;;;;;;;6.18;2.00;;;11.70;74.70;;;;;;5048943;28;20444;-84
2021/07/21 06:16:27;;;;;;;5.68;1.38;;;11.60;75.60;;;;;;5050522;28;20949;-86
2021/07/21 06:18:54;;;;;;;7.95;2.08;;;11.50;75.60;;;;;;5054737;28;20449;-90
2021/07/21 06:21:21;;;;;;;8.15;2.20;;;11.60;76.60;;;;;;5048402;28;20422;-86
2021/07/21 06:23:49;;;;;;;6.50;2.38;;;11.50;77.60;;;;;;5080237;28;20917;-85
2021/07/21 06:26:16;;;;;;;4.55;1.75;;;11.40;77.70;;;;;;5052621;28;20421;-85
2021/07/21 06:28:43;;;;;;;4.37;1.83;;;11.40;78.80;;;;;;5059127;28;20493;-88
2021/07/21 06:31:10;;;;;;;5.03;1.70;;;11.30;79.00;;;;;;5060605;28;20414;-86
2021/07/21 06:33:37;;;;;;;5.80;1.67;;;11.20;79.70;;;;;;5059638;28;20461;-85
2021/07/21 06:36:05;;;;;;;5.22;1.75;;;11.20;80.30;;;;;;5056159;28;20437;-86
2021/07/21 06:38:32;;;;;;;3.45;1.90;;;11.20;79.60;;;;;;5060514;28;20401;-90
2021/07/21 06:40:59;;;;;;;5.53;1.90;;;11.10;80.90;;;;;;5058047;28;20393;-88
2021/07/21 06:43:26;;;;;;;6.07;2.17;;;11.10;81.30;;;;;;5055560;28;20401;-89
2021/07/21 06:45:56;;;;;;;10.23;4.15;;;11.00;82.20;;;;;;5060686;28;20437;-92
2021/07/21 06:48:24;;;;;;;3.95;2.15;;;10.90;82.10;;;;;;5061217;28;20414;-89
2021/07/21 06:50:51;;;;;;;6.30;2.10;;;10.90;82.70;;;;;;5062393;28;22063;-91
2021/07/21 06:53:18;;;;;;;4.43;1.30;;;10.90;83.90;;;;;;5062128;28;20440;-91
2021/07/21 06:55:46;;;;;;;5.13;1.50;;;10.90;82.90;;;;;;5067476;28;21013;-90
2021/07/21 06:58:13;;;;;;;3.73;1.50;;;10.80;84.40;;;;;;5068497;28;20451;-90
2021/07/21 07:00:41;;;;;;;3.57;1.07;;;10.70;90.00;;;;;;5066091;28;20475;-92
2021/07/21 07:03:09;;;;;;;3.28;1.23;;;10.60;91.50;;;;;;5092570;28;20394;-91
2021/07/21 07:05:36;;;;;;;3.90;1.30;;;10.50;88.80;;;;;;5080958;28;20404;-89
2021/07/21 07:08:03;;;;;;;2.70;1.65;;;10.40;89.90;;;;;;5073689;28;20429;-89
2021/07/21 07:10:30;;;;;;;5.57;1.10;;;10.40;92.10;;;;;;5057839;28;20388;-89
2021/07/21 07:12:57;;;;;;;3.08;1.23;;;10.20;91.20;;;;;;5067745;28;20394;-91
2021/07/21 07:15:25;;;;;;;2.22;1.05;;;10.30;92.00;;;;;;5071551;28;20806;-90
2021/07/21 07:17:52;;;;;;;2.92;1.45;;;10.20;93.60;;;;;;5061717;28;20434;-90
2021/07/21 07:20:21;;;;;;;5.13;1.80;;;10.20;92.90;;;;;;5057076;28;20411;-90
2021/07/21 07:22:48;;;;;;;4.82;2.00;;;10.10;93.30;;;;;;5073958;28;20503;-89
2021/07/21 07:25:15;;;;;;;7.40;2.58;;;10.00;93.70;;;;;;5064095;28;20787;-89
2021/07/21 07:27:42;;;;;;;4.57;2.35;;;10.00;94.40;;;;;;5066285;28;21224;-90
2021/07/21 07:30:14;;;;;;;5.90;2.00;;;10.00;96.40;;;;;;5056443;28;20412;-89
2021/07/21 07:32:42;;;;;;;5.82;1.85;;;9.90;96.80;;;;;;5059293;28;20433;-87
2021/07/21 07:35:18;;;;;;;5.63;1.67;;;9.80;97.90;;;;;;5056147;28;20400;-90
2021/07/21 07:37:45;;;;;;;4.40;1.90;;;9.70;97.20;;;;;;5056057;28;20481;-86
2021/07/21 07:40:13;;;;;;;4.47;1.87;;;9.60;99.30;;;;;;5058663;28;20876;-89
2021/07/21 07:42:40;;;;;;;5.97;1.98;;;9.60;99.40;;;;;;5058157;28;20426;-88
2021/07/21 07:45:11;;;;;;;5.80;2.30;;;9.50;99.90;;;;;;5055009;28;20420;-88
2021/07/21 07:47:38;;;;;;;3.92;1.70;;;9.40;99.90;;;;;;5058663;28;20405;-87
2021/07/21 07:50:08;;;;;;;3.88;2.05;;;9.30;99.90;;;;;;5058079;28;20522;-87
2021/07/21 07:52:35;;;;;;;6.47;2.97;;;9.20;99.90;;;;;;5053443;28;20405;-87
2021/07/21 07:55:04;;;;;;;4.97;2.47;;;9.10;99.90;;;;;;5049781;28;20390;-84
2021/07/21 07:57:31;;;;;;;6.03;2.50;;;9.00;99.90;;;;;;5049583;28;20418;-85
2021/07/21 07:59:59;;;;;;;7.80;2.13;;;9.00;99.90;;;;;;5055699;28;20383;-85
2021/07/21 08:02:26;;;;;;;5.28;2.00;;;9.00;99.90;;;;;;5067021;28;20400;-85
2021/07/21 08:04:53;;;;;;;7.00;2.28;;;8.90;99.90;;;;;;5067804;28;20432;-87
2021/07/21 08:07:20;;;;;;;5.68;1.88;;;9.00;99.90;;;;;;5071706;28;20386;-86
2021/07/21 08:09:47;;;;;;;2.75;1.70;;;9.00;99.90;;;;;;5077923;28;20396;-85
2021/07/21 08:12:13;;;;;;;4.70;1.80;;;9.00;99.90;;;;;;5062183;28;20907;-88
2021/07/21 08:14:41;;;;;;;7.88;2.00;;;9.00;99.90;;;;;;5060896;28;20386;-84
2021/07/21 08:17:08;;;;;;;6.15;2.00;;;8.90;99.90;;;;;;5091365;28;20372;-87
2021/07/21 08:19:36;;;;;;;4.70;2.00;;;8.80;99.90;;;;;;5077751;28;20477;-88
2021/07/21 08:22:03;;;;;;;4.20;2.47;;;8.60;99.90;;;;;;5060255;28;20870;-87
2021/07/21 08:24:31;;;;;;;4.38;2.53;;;8.60;99.90;;;;;;5067920;28;20487;-86
2021/07/21 08:26:58;;;;;;;8.45;2.20;;;8.60;99.90;;;;;;5075561;28;20389;-87
2021/07/21 08:29:26;;;;;;;7.45;2.10;;;8.60;99.90;;;;;;5059982;28;20391;-87
2021/07/21 08:31:53;;;;;;;5.93;2.53;;;8.60;99.90;;;;;;5070528;28;20412;-86
2021/07/21 08:34:20;;;;;;;7.80;2.38;;;8.60;99.90;;;;;;5076984;28;20412;-86
2021/07/21 08:36:47;;;;;;;5.90;1.90;;;8.60;99.90;;;;;;5063284;28;20430;-85
2021/07/21 08:39:14;;;;;;;7.18;2.28;;;8.60;99.90;;;;;;5052751;28;20396;-86
2021/07/21 08:41:41;;;;;;;8.70;2.50;;;8.50;99.90;;;;;;5071002;28;20382;-85
2021/07/21 08:44:08;;;;;;;8.52;2.70;;;8.50;99.90;;;;;;5069482;28;20388;-89
2021/07/21 08:46:40;;;;;;;9.15;2.40;;;8.50;99.90;;;;;;5078536;28;20419;-86
2021/07/21 08:49:07;;;;;;;10.55;3.17;;;8.40;99.90;;;;;;5099187;28;20405;-84
2021/07/21 08:51:36;;;;;;;5.70;2.60;;;8.40;99.90;;;;;;5097618;28;20408;-85
2021/07/21 08:54:04;;;;;;;9.02;2.50;;;8.40;99.90;;;;;;5102762;28;20386;-85
2021/07/21 08:56:32;;;;;;;7.10;2.45;;;8.30;99.90;;;;;;5075309;28;20451;-84
2021/07/21 08:58:59;;;;;;;8.57;3.00;;;8.30;99.90;;;;;;5079470;28;20394;-86
2021/07/21 09:01:27;;;;;;;9.93;3.50;;;8.30;99.90;;;;;;5072399;28;20474;-86
2021/07/21 09:03:54;;;;;;;11.77;3.90;;;8.20;99.90;;;;;;5071358;28;20510;-86
2021/07/21 09:06:21;;;;;;;11.70;4.22;;;8.20;99.90;;;;;;5077335;28;20380;-86
2021/07/21 09:08:48;;;;;;;9.55;3.78;;;8.20;99.90;;;;;;5091790;28;20871;-86
2021/07/21 09:11:17;;;;;;;9.30;3.40;;;8.20;99.90;;;;;;5091841;28;20408;-87
2021/07/21 09:13:44;;;;;;;10.98;3.50;;;8.10;99.90;;;;;;5082442;28;20394;-86
2021/07/21 09:16:12;;;;;;;7.32;2.70;;;8.10;99.90;;;;;;5074999;28;20439;-87
2021/07/21 09:18:57;;;;;;;10.82;3.53;;;8.10;99.90;;;;;;5071920;28;20745;-87
2021/07/21 09:21:26;;;;;;;9.13;3.65;;;8.00;99.90;;;;;;5077435;28;20398;-86
2021/07/21 09:23:55;;;;;;;9.15;3.50;;;8.10;99.90;;;;;;5053485;28;20398;-86
2021/07/21 09:26:32;;;;;;;13.48;3.75;;;8.00;99.90;;;;;;5053240;28;20387;-86
2021/07/21 09:29:02;;;;;;;10.70;4.00;;;8.00;99.90;;;;;;5052381;28;20452;-87
2021/07/21 09:31:39;;;;;;;8.48;3.15;;;7.90;99.90;;;;;;5063896;28;20423;-85
2021/07/21 09:34:20;;;;;;;7.45;3.58;;;7.90;99.90;;;;;;5062460;28;20395;-86
2021/07/21 09:36:59;;;;;;;7.37;3.00;;;7.90;99.90;;;;;;5072584;28;20414;-86
2021/07/21 09:39:38;;;;;;;12.90;3.70;;;7.80;99.90;;;;;;5059196;28;20404;-87
2021/07/21 09:42:06;;;;;;;8.10;2.97;;;7.80;99.90;;;;;;5055087;28;20434;-85
2021/07/21 09:44:36;;;;;;;8.50;3.50;;;7.80;99.90;;;;;;5065863;28;20440;-87
2021/07/21 09:47:17;;;;;;;12.90;4.47;;;7.80;99.90;;;;;;5070791;28;20793;-86
2021/07/21 09:49:46;;;;;;;11.40;4.13;;;7.80;99.90;;;;;;5058168;28;20396;-86
2021/07/21 09:52:22;;;;;;;11.65;4.50;;;7.80;99.90;;;;;;5064271;28;20410;-86
2021/07/21 09:55:12;;;;;;;10.02;4.00;;;7.80;99.90;;;;;;5058702;28;20383;-83
2021/07/21 09:57:40;;;;;;;11.63;3.63;;;7.80;99.90;;;;;;5055191;28;20395;-87
2021/07/21 10:00:25;;;;;;;9.80;3.40;;;7.70;99.90;;;;;;5058259;28;20398;-86
2021/07/21 10:03:14;;;;;;;10.45;3.40;;;7.70;99.90;;;;;;5058359;28;20408;-86
2021/07/21 10:05:51;;;;;;;11.05;3.33;;;7.70;99.90;;;;;;5062753;28;20859;-86
2021/07/21 10:08:49;;;;;;;9.32;2.90;;;7.70;99.90;;;;;;5061095;28;20599;-86
2021/07/21 10:11:37;;;;;;;8.77;3.45;;;7.70;99.90;;;;;;5056545;28;20470;-86
2021/07/21 10:14:04;;;;;;;7.82;3.53;;;7.60;99.90;;;;;;5059121;28;20555;-86
2021/07/21 10:16:36;;;;;;;11.82;3.28;;;7.50;99.90;;;;;;5056694;28;20376;-87
2021/07/21 10:19:12;;;;;;;11.38;3.63;;;7.50;99.90;;;;;;5057012;28;20436;-86
2021/07/21 10:21:43;;;;;;;9.47;4.27;;;7.50;99.90;;;;;;5062396;28;20417;-86
2021/07/21 10:24:12;;;;;;;12.00;3.70;;;7.40;99.90;;;;;;5059033;28;20435;-86
2021/07/21 10:26:41;;;;;;;13.55;4.22;;;7.40;99.90;;;;;;5060531;28;20381;-83
2021/07/21 10:29:09;;;;;;;13.75;4.50;;;7.40;99.90;;;;;;5060311;28;20878;-86
2021/07/21 10:31:37;;;;;;;8.52;3.85;;;7.40;99.90;;;;;;5061855;28;20417;-86
2021/07/21 10:34:05;;;;;;;10.85;4.70;;;7.40;99.90;;;;;;5054990;28;20411;-87
2021/07/21 10:36:33;;;;;;;10.80;4.50;;;7.40;99.90;;;;;;5064967;28;20406;-87
2021/07/21 10:39:03;;;;;;;14.00;4.77;;;7.40;99.90;;;;;;5059855;28;20487;-84
2021/07/21 10:41:31;;;;;;;13.55;6.60;;;7.30;99.90;;;;;;5058849;28;20396;-86
2021/07/21 10:43:59;;;;;;;14.98;7.07;;;7.30;99.90;;;;;;5063934;28;20884;-86
2021/07/21 10:46:32;;;;;;;10.40;6.60;;;7.20;99.90;;;;;;5063502;28;21927;-87
2021/07/21 10:52:22;;;;;;;11.00;5.85;;;7.10;99.90;;;;;;5060334;28;20902;-86
2021/07/21 10:54:56;;;;;;;12.63;5.63;;;7.10;99.90;;;;;;5062020;28;20411;-87
2021/07/21 11:00:24;;;;;;;11.23;5.10;;;7.00;99.90;;;;;;5060929;28;21361;-84
2021/07/21 11:03:14;;;;;;;10.75;4.50;;;7.00;99.90;;;;;;5056957;28;20402;-85
2021/07/21 11:05:43;;;;;;;11.70;4.40;;;7.00;99.90;;;;;;5064700;28;20390;-86
2021/07/21 11:08:21;;;;;;;11.70;4.13;;;7.00;99.90;;;;;;5062610;28;20411;-87
2021/07/21 11:10:51;;;;;;;12.65;4.32;;;7.00;99.90;;;;;;5091940;27;20947;-85
2021/07/21 11:13:27;;;;;;;12.93;4.50;;;7.00;99.90;;;;;;5069841;28;20385;-84
2021/07/21 11:15:58;;;;;;;9.98;4.28;;;6.90;99.90;;;;;;5077552;28;20819;-88
2021/07/21 11:18:25;;;;;;;9.70;4.07;;;7.00;99.90;;;;;;5073777;28;20469;-89
2021/07/21 11:21:12;;;;;;;9.77;4.07;;;6.90;99.90;;;;;;5070538;28;20414;-89
2021/07/21 11:23:43;;;;;;;10.73;4.32;;;6.80;99.90;;;;;;5062072;28;20484;-90
2021/07/21 11:26:35;;;;;;;12.32;5.05;;;6.80;99.90;;;;;;5054158;28;20426;-87
2021/07/21 11:29:23;;;;;;;9.57;4.93;;;6.70;99.90;;;;;;5069298;28;20452;-91
2021/07/21 11:31:50;;;;;;;17.08;5.57;;;6.60;99.90;;;;;;5095875;28;20428;-90
2021/07/21 11:34:30;;;;;;;16.85;8.15;;;6.50;99.90;;;;;;5079091;28;20378;-85
2021/07/21 11:37:07;;;;;;;21.88;8.48;;;6.40;99.90;;;;;;5072959;28;20890;-85
2021/07/21 11:39:42;;;;;;;16.80;7.50;;;6.30;99.90;;;;;;5074255;28;20733;-85
2021/07/21 11:42:29;;;;;;;17.90;7.35;;;6.20;99.90;;;;;;5073411;28;20377;-85
2021/07/21 11:45:14;;;;;;;8.88;5.43;;;6.10;99.90;;;;;;5092150;28;21312;-85
2021/07/21 11:47:47;;;;;;;11.98;5.32;;;6.00;99.90;;;;;;5094097;28;20752;-85
2021/07/21 11:50:21;;;;;;;12.17;5.27;;;6.00;99.90;;;;;;5079792;28;20400;-85
2021/07/21 11:52:55;;;;;;;9.07;5.10;;;5.90;99.90;;;;;;5072172;28;20407;-85
2021/07/21 11:55:25;;;;;;;14.98;5.95;;;5.90;99.90;;;;;;5056323;28;20401;-87
2021/07/21 11:57:54;;;;;;;16.93;8.70;;;5.90;99.90;;;;;;5056344;28;21275;-84
2021/07/21 12:00:23;;;;;;;22.13;9.95;;;5.80;99.90;;;;;;5075185;28;20400;-83
2021/07/21 12:03:01;;;;;;;19.17;9.85;;;5.70;99.90;;;;;;5068968;28;20540;-85
2021/07/21 12:05:28;;;;;;;15.10;8.15;;;5.70;99.90;;;;;;5051972;28;20379;-85
2021/07/21 12:08:06;;;;;;;16.67;8.40;;;5.70;99.90;;;;;;5050372;28;20430;-84
2021/07/21 12:10:34;;;;;;;12.15;5.63;;;5.60;99.90;;;;;;5052574;28;20421;-85
2021/07/21 12:13:09;;;;;;;12.57;5.95;;;5.60;99.90;;;;;;5058457;28;20478;-85
2021/07/21 12:15:36;;;;;;;15.63;6.78;;;5.60;99.90;;;;;;5072001;28;20375;-84
2021/07/21 12:18:14;;;;;;;13.00;7.10;;;5.60;99.90;;;;;;5069957;28;20420;-85
2021/07/21 12:20:44;;;;;;;15.45;7.05;;;5.60;99.90;;;;;;5055731;28;20423;-85
2021/07/21 12:23:12;;;;;;;12.93;6.97;;;5.50;99.90;;;;;;5051972;28;21091;-85
2021/07/21 12:25:39;;;;;;;13.95;7.88;;;5.50;99.90;;;;;;5072617;28;20382;-85
2021/07/21 12:28:09;;;;;;;13.82;8.05;;;5.40;99.90;;;;;;5067637;28;20763;-85
2021/07/21 12:30:37;;;;;;;14.55;7.90;;;5.40;99.90;;;;;;5050930;28;20969;-85
2021/07/21 12:33:06;;;;;;;15.27;7.25;;;5.30;99.90;;;;;;5052023;28;20932;-85
2021/07/21 12:35:34;;;;;;;14.27;6.72;;;5.30;99.90;;;;;;5083301;28;20762;-85
2021/07/21 12:38:02;;;;;;;15.43;7.18;;;5.30;99.90;;;;;;5068040;28;20433;-86
2021/07/21 12:40:31;;;;;;;14.98;6.97;;;5.30;99.90;;;;;;5087728;28;20404;-85
2021/07/21 12:43:01;;;;;;;19.27;11.23;;;5.30;99.90;;;;;;5072440;28;20882;-85
2021/07/21 12:45:34;;;;;;;20.17;9.43;;;5.30;99.90;;;;;;5052056;28;20414;-85
2021/07/21 12:48:02;;;;;;;16.95;8.55;;;5.30;99.90;;;;;;5050755;28;20395;-85
2021/07/21 12:50:32;;;;;;;16.15;6.63;;;5.20;99.90;;;;;;5054127;28;20415;-86
2021/07/21 12:53:04;;;;;;;13.82;6.03;;;5.20;99.90;;;;;;5050416;28;20388;-85
2021/07/21 12:55:36;;;;;;;11.53;5.93;;;5.20;99.90;;;;;;5050907;28;20387;-85
2021/07/21 12:58:05;;;;;;;13.23;6.10;;;5.20;99.90;;;;;;5056992;28;20406;-85
2021/07/21 13:00:34;;;;;;;10.87;5.40;;;5.30;99.90;;;;;;5054402;28;20483;-85
2021/07/21 13:03:08;;;;;;;9.00;4.97;;;5.20;99.90;;;;;;5051164;28;20376;-84
2021/07/21 13:05:37;;;;;;;10.18;4.30;;;5.30;99.90;;;;;;5050944;28;20789;-85
2021/07/21 13:08:10;;;;;;;11.65;4.38;;;5.30;99.90;;;;;;5050405;28;20383;-83
2021/07/21 13:10:43;;;;;;;10.38;4.15;;;5.30;99.90;;;;;;5050767;28;20481;-86
2021/07/21 13:13:28;;;;;;;8.52;4.05;;;5.40;99.90;;;;;;5071372;28;20737;-84
2021/07/21 13:16:00;;;;;;;7.13;3.80;;;5.40;99.90;;;;;;5052811;28;20411;-86
2021/07/21 13:18:41;;;;;;;8.20;3.83;;;5.50;99.90;;;;;;5069274;28;20815;-85
2021/07/21 13:21:28;;;;;;;10.30;3.90;;;5.50;99.90;;;;;;5066749;28;20391;-85